createdAt,value
2022-08-28T18:14:08.108Z,286.929
2022-08-28T18:15:08.173Z,251.857
2022-08-28T18:16:08.223Z,251.929
2022-08-28T18:17:09.172Z,333
2022-08-28T18:18:08.295Z,372.429
2022-08-28T18:19:08.318Z,342.214
2022-08-28T18:20:08.387Z,292.714
2022-08-28T18:21:08.421Z,268.143
2022-08-28T18:22:08.443Z,258.857
2022-08-28T18:23:08.483Z,450.857
2022-08-28T18:24:08.529Z,566.714
2022-08-28T18:25:08.569Z,702.214
2022-08-28T18:26:08.608Z,579.214
2022-08-28T18:27:08.646Z,638.5
2022-08-28T18:28:08.687Z,529.929
2022-08-28T18:29:08.729Z,527.643
2022-08-28T18:30:08.768Z,478.357
2022-08-28T18:31:08.846Z,423.143
2022-08-28T18:32:08.885Z,359
2022-08-28T18:33:08.901Z,331.857
2022-08-28T18:34:08.949Z,310.214
2022-08-28T18:35:08.985Z,289.429
2022-08-28T18:36:09.030Z,255.643
2022-08-28T18:37:09.094Z,227.643
2022-08-28T18:38:09.132Z,207.357
2022-08-28T18:39:09.157Z,178.714
2022-08-28T18:40:09.286Z,162.429
2022-08-28T18:41:09.234Z,142.5
2022-08-28T18:42:09.295Z,134.857
2022-08-28T18:43:09.318Z,113.857
2022-08-28T18:44:09.359Z,99.5
2022-08-28T18:45:09.398Z,94.9286
2022-08-28T18:46:09.567Z,84
2022-08-28T18:47:09.486Z,69.7143
2022-08-28T18:48:09.546Z,68.2143
2022-08-28T18:49:09.595Z,65.6429
2022-08-28T18:50:09.615Z,58.9286
2022-08-28T18:51:09.655Z,51.2143
2022-08-28T18:52:09.700Z,50
2022-08-28T18:53:09.760Z,45.1429
2022-08-28T18:54:09.824Z,40.1429
2022-08-28T18:55:09.820Z,37.5
2022-08-28T18:56:11.008Z,34.1429
2022-08-28T18:57:09.909Z,30.8571
2022-08-28T18:58:10.006Z,29.1429
2022-08-28T18:59:09.995Z,29.1429
2022-08-28T19:00:10.036Z,27.7143
2022-08-28T19:01:10.077Z,25.6429
2022-08-28T19:02:10.274Z,25.3571
2022-08-28T19:03:10.227Z,23.9286
2022-08-28T19:04:10.220Z,23.2143
2022-08-28T19:05:10.235Z,21.2143
2022-08-28T19:06:10.275Z,22.4286
2022-08-28T19:07:10.330Z,19.6429
2022-08-28T19:08:10.478Z,21.4286
2022-08-28T19:09:11.675Z,18.7143
2022-08-28T19:10:28.103Z,18.2143
2022-08-28T19:11:10.480Z,18.8571
2022-08-28T19:12:10.515Z,17.2143
2022-08-28T19:13:10.577Z,17.6429
2022-08-28T19:14:10.600Z,16.4286
2022-08-28T19:15:10.644Z,17
2022-08-28T19:16:10.780Z,15.6429
2022-08-28T19:17:10.724Z,15.3571
2022-08-28T19:18:10.866Z,14.1429
2022-08-28T19:19:10.845Z,15.5
2022-08-28T19:20:10.856Z,15.1429
2022-08-28T19:21:10.894Z,13.7143
2022-08-28T19:22:10.936Z,13.5
2022-08-28T19:23:14.268Z,12
2022-08-28T19:24:11.036Z,12
2022-08-28T19:25:22.331Z,11.9286
2022-08-28T19:26:11.097Z,11.7143
2022-08-28T19:27:11.135Z,11.5
2022-08-28T19:28:11.224Z,11.5
2022-08-28T19:29:11.237Z,11
2022-08-28T19:30:11.255Z,9.92857
2022-08-28T19:31:11.352Z,9.71429
2022-08-28T19:32:11.337Z,12.1429
2022-08-28T19:33:11.412Z,9.85714
2022-08-28T19:34:11.421Z,11.1429
2022-08-28T19:35:11.462Z,9.42857
2022-08-28T19:36:11.512Z,8.92857
2022-08-28T19:37:11.563Z,137.929
2022-08-28T19:38:11.606Z,226.214
2022-08-28T19:39:11.628Z,207.857
2022-08-28T19:40:11.740Z,255.143
2022-08-28T19:41:11.717Z,266.929
2022-08-28T19:42:11.747Z,248.429
2022-08-28T19:43:16.562Z,260.929
2022-08-28T19:44:11.833Z,281.357
2022-08-28T19:45:11.908Z,275.857
2022-08-28T19:46:19.871Z,271.214
2022-08-28T19:47:11.953Z,226.357
2022-08-28T19:48:12.179Z,211.429
2022-08-28T19:49:12.031Z,193.357
2022-08-28T19:50:12.099Z,211.5
2022-08-28T19:51:17.624Z,267.929
2022-08-28T19:52:12.158Z,277.714
2022-08-28T19:53:12.201Z,259.429
2022-08-28T19:54:12.268Z,257.643
2022-08-28T19:55:12.285Z,271.714
2022-08-28T19:56:12.326Z,285
2022-08-28T19:57:12.371Z,309.357
2022-08-28T19:58:12.558Z,292.929
2022-08-28T19:59:12.445Z,261.929
2022-08-28T20:00:12.489Z,232.429
2022-08-28T20:01:12.636Z,188.429
2022-08-28T20:02:12.614Z,181.143
2022-08-28T20:03:12.611Z,160.214
2022-08-28T20:04:12.656Z,145.857
2022-08-28T20:05:12.687Z,126.714
2022-08-28T20:06:12.757Z,119.857
2022-08-28T20:07:12.777Z,102.357
2022-08-28T20:08:12.961Z,90.3571
2022-08-28T20:09:13.263Z,76.8571
2022-08-28T20:10:12.910Z,69.4286
2022-08-28T20:11:12.979Z,63.4286
2022-08-28T20:12:13.003Z,57.9286
2022-08-28T20:13:13.074Z,53.6429
2022-08-28T20:14:13.088Z,48.1429
2022-08-28T20:15:14.282Z,42.5
2022-08-28T20:16:13.291Z,164
2022-08-28T20:17:13.216Z,182.214
2022-08-28T20:18:13.375Z,167
2022-08-28T20:19:13.295Z,170.929
2022-08-28T20:20:13.339Z,156.643
2022-08-28T20:21:13.381Z,137.929
2022-08-28T20:22:13.425Z,126.714
2022-08-28T20:23:13.485Z,111.357
2022-08-28T20:24:13.515Z,97.2143
2022-08-28T20:25:13.548Z,85.1429
2022-08-28T20:26:13.595Z,73.8571
2022-08-28T20:27:13.633Z,68.7143
2022-08-28T20:28:13.977Z,64
2022-08-28T20:29:13.723Z,57.8571
2022-08-28T20:30:13.762Z,51.9286
2022-08-28T20:31:13.843Z,46.8571
2022-08-28T20:32:13.840Z,43.6429
2022-08-28T20:33:13.905Z,42.4286
2022-08-28T20:34:13.954Z,40.7143
2022-08-28T20:35:13.970Z,42
2022-08-28T20:36:18.966Z,40.9286
2022-08-28T20:37:14.072Z,37.7143
2022-08-28T20:38:14.220Z,38.1429
2022-08-28T20:39:14.138Z,35.3571
2022-08-28T20:40:14.302Z,33.9286
2022-08-28T20:41:14.239Z,32.4286
2022-08-28T20:42:14.269Z,31.5
2022-08-28T20:43:14.309Z,34.5
2022-08-28T20:44:14.350Z,33.1429
2022-08-28T20:45:14.390Z,36.9286
2022-08-28T20:46:14.540Z,80.9286
2022-08-28T20:47:14.469Z,81.6429
2022-08-28T20:48:14.751Z,86.6429
2022-08-28T20:49:14.562Z,87.6429
2022-08-28T20:50:14.601Z,76.1429
2022-08-28T20:51:14.664Z,69
2022-08-28T20:52:14.679Z,66.3571
2022-08-28T20:53:14.724Z,57.6429
2022-08-28T20:54:14.762Z,57.2143
2022-08-28T20:55:14.847Z,57
2022-08-28T20:56:14.847Z,113
2022-08-28T20:57:14.881Z,121.357
2022-08-28T20:58:15.257Z,166.429
2022-08-28T20:59:14.973Z,177.357
2022-08-28T21:00:15.053Z,204
2022-08-28T21:01:15.138Z,232.857
2022-08-28T21:02:15.101Z,274.143
2022-08-28T21:03:15.138Z,232.857
2022-08-28T21:04:15.182Z,198.143
2022-08-28T21:05:15.345Z,173.143
2022-08-28T21:06:15.270Z,156.857
2022-08-28T21:07:15.303Z,143.5
2022-08-28T21:08:15.575Z,126
2022-08-28T21:09:15.381Z,106.857
2022-08-28T21:10:15.421Z,101.357
2022-08-28T21:11:15.468Z,90.8571
2022-08-28T21:12:15.538Z,75.3571
2022-08-28T21:13:15.562Z,67.6429
2022-08-28T21:14:15.596Z,60
2022-08-28T21:15:15.632Z,51.9286
2022-08-28T21:16:15.697Z,52.4286
2022-08-28T21:17:15.744Z,52.6429
2022-08-28T21:18:16.035Z,48.9286
2022-08-28T21:19:16.635Z,46.9286
2022-08-28T21:20:15.848Z,47.5
2022-08-28T21:21:15.886Z,43.7143
2022-08-28T21:22:15.949Z,39.8571
2022-08-28T21:23:15.969Z,40.9286
2022-08-28T21:24:16.043Z,38
2022-08-28T21:25:16.059Z,38.4286
2022-08-28T21:26:16.102Z,40.1429
2022-08-28T21:27:16.151Z,35
2022-08-28T21:28:16.430Z,32.4286
2022-08-28T21:29:16.250Z,33.9286
2022-08-28T21:30:16.289Z,31.5
2022-08-28T21:31:16.368Z,30.8571
2022-08-28T21:32:16.349Z,31.6429
2022-08-28T21:33:16.407Z,31
2022-08-28T21:34:16.436Z,27.7143
2022-08-28T21:35:16.500Z,27.9286
2022-08-28T21:36:16.533Z,28.4286
2022-08-28T21:37:16.577Z,26.5
2022-08-28T21:38:16.621Z,25.4286
2022-08-28T21:39:16.680Z,24.1429
2022-08-28T21:40:16.784Z,24.1429
2022-08-28T21:41:16.767Z,23.9286
2022-08-28T21:42:16.800Z,23.2143
2022-08-28T21:43:16.868Z,22.6429
2022-08-28T21:44:16.896Z,20.6429
2022-08-28T21:45:16.936Z,19.9286
2022-08-28T21:46:17.077Z,21.3571
2022-08-28T21:47:17.021Z,19.6429
2022-08-28T21:48:17.081Z,19.6429
2022-08-28T21:49:17.099Z,20.2143
2022-08-28T21:50:17.135Z,79.1429
2022-08-28T21:51:17.174Z,119.714
2022-08-28T21:52:17.212Z,131.357
2022-08-28T21:53:17.258Z,139.429
2022-08-28T21:54:17.298Z,140.357
2022-08-28T21:55:17.347Z,117.643
2022-08-28T21:56:17.389Z,107.357
2022-08-28T21:57:17.446Z,90.6429
2022-08-28T21:58:17.468Z,82.7143
2022-08-28T21:59:17.509Z,72.2143
2022-08-28T22:00:17.571Z,69.4286
2022-08-28T22:01:17.756Z,62.1429
2022-08-28T22:02:17.757Z,56.2143
2022-08-28T22:03:17.672Z,49.6429
2022-08-28T22:04:17.714Z,47
2022-08-28T22:05:17.763Z,45.2143
2022-08-28T22:06:17.823Z,46
2022-08-28T22:07:17.849Z,43.5
2022-08-28T22:08:17.894Z,43.7143
2022-08-28T22:09:17.935Z,39.6429
2022-08-28T22:10:18.016Z,37.3571
2022-08-28T22:11:21.030Z,37
2022-08-28T22:12:18.065Z,35.3571
2022-08-28T22:13:18.099Z,37.4286
2022-08-28T22:14:18.142Z,32.3571
2022-08-28T22:15:18.227Z,28.6429
2022-08-28T22:16:18.281Z,22.3571
2022-08-28T22:17:18.269Z,21.8571
2022-08-28T22:18:18.313Z,21.4286
2022-08-28T22:19:18.355Z,17.8571
2022-08-28T22:20:18.429Z,21.4286
2022-08-28T22:21:18.435Z,79.2143
2022-08-28T22:22:18.472Z,82.6429
2022-08-28T22:23:18.547Z,65.6429
2022-08-28T22:24:18.559Z,187.429
2022-08-28T22:25:18.592Z,117.929
2022-08-28T22:26:18.637Z,276.357
2022-08-28T22:27:18.674Z,272.714
2022-08-28T22:28:18.730Z,304.643
2022-08-28T22:29:18.756Z,273.214
2022-08-28T22:30:18.796Z,507.714
2022-08-28T22:31:18.833Z,243.643
2022-08-28T22:32:18.970Z,451.929
2022-08-28T22:33:18.939Z,270.714
2022-08-28T22:34:18.954Z,830.357
2022-08-28T22:35:19.002Z,325.857
2022-08-28T22:36:19.044Z,224.214
2022-08-28T22:37:19.086Z,198.643
2022-08-28T22:38:19.127Z,182.929
2022-08-28T22:39:19.167Z,137.929
2022-08-28T22:40:19.266Z,197
2022-08-28T22:41:19.247Z,271.357
2022-08-28T22:42:19.575Z,255.5
2022-08-28T22:43:19.322Z,194.429
2022-08-28T22:44:19.362Z,161.429
2022-08-28T22:45:19.404Z,143.357
2022-08-28T22:46:19.505Z,132.357
2022-08-28T22:47:19.482Z,112.929
2022-08-28T22:48:19.525Z,111.357
2022-08-28T22:49:19.568Z,235.929
2022-08-28T22:50:19.602Z,249.5
2022-08-28T22:51:19.648Z,198.429
2022-08-28T22:52:19.688Z,164.857
2022-08-28T22:53:19.730Z,146.857
2022-08-28T22:54:19.766Z,132.714
2022-08-28T22:55:19.812Z,126.929
2022-08-28T22:56:19.850Z,112.429
2022-08-28T22:57:19.891Z,98.9286
2022-08-28T22:58:19.932Z,93.5
2022-08-28T22:59:19.981Z,93.3571
2022-08-28T23:00:20.039Z,93.3571
2022-08-28T23:01:20.100Z,93.3571
2022-08-28T23:02:20.161Z,93.3571
2022-08-28T23:03:20.447Z,93.3571
2022-08-28T23:04:20.317Z,93.3571
2022-08-28T23:05:20.331Z,93.3571
2022-08-28T23:06:20.390Z,93.3571
2022-08-28T23:07:20.469Z,93.3571
2022-08-28T23:08:20.492Z,93.3571
2022-08-28T23:09:20.554Z,33.7143
2022-08-28T23:10:32.107Z,21
2022-08-28T23:11:20.624Z,21.3571
2022-08-28T23:12:20.671Z,18.3571
2022-08-28T23:13:20.708Z,20.8571
2022-08-28T23:14:20.747Z,17
2022-08-28T23:15:20.784Z,302.929
2022-08-28T23:16:20.894Z,51.2143
2022-08-28T23:17:20.859Z,235
2022-08-28T23:18:20.899Z,275.929
2022-08-28T23:19:20.940Z,281.214
2022-08-28T23:20:20.986Z,309.5
2022-08-28T23:21:21.045Z,340.214
2022-08-28T23:22:21.064Z,333.143
2022-08-28T23:23:21.100Z,347.214
2022-08-28T23:24:21.173Z,386.429
2022-08-28T23:25:21.213Z,485.857
2022-08-28T23:26:21.233Z,443.643
2022-08-28T23:27:35.354Z,462
2022-08-28T23:28:21.313Z,416
2022-08-28T23:29:21.353Z,393.143
2022-08-28T23:30:21.402Z,540.429
2022-08-28T23:31:21.744Z,544.643
2022-08-28T23:32:21.506Z,544.643
2022-08-28T23:33:23.070Z,544.643
2022-08-28T23:34:21.619Z,544.643
2022-08-28T23:35:21.680Z,544.643
2022-08-28T23:36:21.765Z,544.643
2022-08-28T23:37:21.797Z,544.643
2022-08-28T23:38:21.857Z,544.643
2022-08-28T23:39:21.917Z,544.643
2022-08-28T23:40:22.033Z,544.643
2022-08-28T23:41:22.110Z,544.643
2022-08-28T23:42:22.095Z,544.643
2022-08-28T23:43:22.182Z,544.643
2022-08-28T23:44:22.210Z,544.643
2022-08-28T23:45:22.274Z,544.643
2022-08-28T23:46:22.373Z,544.643
2022-08-28T23:47:22.391Z,544.643
2022-08-28T23:48:22.485Z,544.643
2022-08-28T23:49:26.723Z,544.643
2022-08-28T23:50:22.568Z,544.643
2022-08-28T23:51:22.629Z,544.643
2022-08-28T23:52:22.687Z,544.643
2022-08-28T23:53:22.770Z,544.643
2022-08-28T23:54:22.807Z,544.643
2022-08-28T23:55:22.865Z,544.643
2022-08-28T23:56:22.927Z,544.643
2022-08-28T23:57:22.982Z,544.643
2022-08-28T23:58:23.064Z,544.643
2022-08-28T23:59:23.112Z,544.643
